sensor_id;sensor_type;location;lat;lon;timestamp;P1;durP1;ratioP1;P2;durP2;ratioP2
50789;SDS011;37287;47.554;7.844;2023-03-14T00:01:12;0.43;;;0.40;;
50789;SDS011;37287;47.554;7.844;2023-03-14T00:03:49;0.10;;;0.10;;
50789;SDS011;37287;47.554;7.844;2023-03-14T00:06:16;0.20;;;0.20;;
50789;SDS011;37287;47.554;7.844;2023-03-14T00:08:44;0.25;;;0.20;;
50789;SDS011;37287;47.554;7.844;2023-03-14T00:11:14;0.28;;;0.28;;
50789;SDS011;37287;47.554;7.844;2023-03-14T00:13:42;0.40;;;0.40;;
50789;SDS011;37287;47.554;7.844;2023-03-14T00:16:25;0.43;;;0.43;;
50789;SDS011;37287;47.554;7.844;2023-03-14T00:18:52;0.40;;;0.40;;
50789;SDS011;37287;47.554;7.844;2023-03-14T00:21:19;0.40;;;0.40;;
50789;SDS011;37287;47.554;7.844;2023-03-14T00:23:47;0.47;;;0.47;;
50789;SDS011;37287;47.554;7.844;2023-03-14T00:26:15;0.40;;;0.40;;
50789;SDS011;37287;47.554;7.844;2023-03-14T00:28:43;0.90;;;0.50;;
50789;SDS011;37287;47.554;7.844;2023-03-14T00:31:11;0.40;;;0.30;;
50789;SDS011;37287;47.554;7.844;2023-03-14T00:33:39;0.20;;;0.20;;
50789;SDS011;37287;47.554;7.844;2023-03-14T00:36:07;0.30;;;0.28;;
50789;SDS011;37287;47.554;7.844;2023-03-14T00:38:38;0.20;;;0.20;;
50789;SDS011;37287;47.554;7.844;2023-03-14T00:41:06;0.30;;;0.30;;
50789;SDS011;37287;47.554;7.844;2023-03-14T00:43:34;0.38;;;0.38;;
50789;SDS011;37287;47.554;7.844;2023-03-14T00:46:08;0.30;;;0.30;;
50789;SDS011;37287;47.554;7.844;2023-03-14T00:48:35;0.20;;;0.20;;
50789;SDS011;37287;47.554;7.844;2023-03-14T00:51:03;0.30;;;0.30;;
50789;SDS011;37287;47.554;7.844;2023-03-14T00:53:35;0.17;;;0.17;;
50789;SDS011;37287;47.554;7.844;2023-03-14T00:56:04;0.20;;;0.20;;
50789;SDS011;37287;47.554;7.844;2023-03-14T00:58:32;0.88;;;0.30;;
50789;SDS011;37287;47.554;7.844;2023-03-14T01:01:05;0.52;;;0.20;;
50789;SDS011;37287;47.554;7.844;2023-03-14T01:03:37;0.50;;;0.17;;
50789;SDS011;37287;47.554;7.844;2023-03-14T01:08:38;0.28;;;0.28;;
50789;SDS011;37287;47.554;7.844;2023-03-14T01:11:07;0.30;;;0.30;;
50789;SDS011;37287;47.554;7.844;2023-03-14T01:13:35;0.82;;;0.82;;
50789;SDS011;37287;47.554;7.844;2023-03-14T01:16:03;0.50;;;0.50;;
50789;SDS011;37287;47.554;7.844;2023-03-14T01:18:37;0.30;;;0.30;;
50789;SDS011;37287;47.554;7.844;2023-03-14T01:21:19;0.35;;;0.35;;
50789;SDS011;37287;47.554;7.844;2023-03-14T01:23:52;0.30;;;0.20;;
50789;SDS011;37287;47.554;7.844;2023-03-14T01:26:21;1.55;;;0.30;;
50789;SDS011;37287;47.554;7.844;2023-03-14T01:28:55;0.35;;;0.25;;
50789;SDS011;37287;47.554;7.844;2023-03-14T01:31:22;0.10;;;0.10;;
50789;SDS011;37287;47.554;7.844;2023-03-14T01:33:50;0.25;;;0.10;;
50789;SDS011;37287;47.554;7.844;2023-03-14T01:36:17;0.20;;;0.20;;
50789;SDS011;37287;47.554;7.844;2023-03-14T01:38:44;0.45;;;0.30;;
50789;SDS011;37287;47.554;7.844;2023-03-14T01:41:17;0.20;;;0.20;;
50789;SDS011;37287;47.554;7.844;2023-03-14T01:43:47;0.20;;;0.20;;
50789;SDS011;37287;47.554;7.844;2023-03-14T01:46:19;0.20;;;0.20;;
50789;SDS011;37287;47.554;7.844;2023-03-14T01:51:30;0.20;;;0.20;;
50789;SDS011;37287;47.554;7.844;2023-03-14T01:54:04;0.30;;;0.30;;
50789;SDS011;37287;47.554;7.844;2023-03-14T01:56:33;0.10;;;0.10;;
50789;SDS011;37287;47.554;7.844;2023-03-14T01:59:08;0.20;;;0.10;;
50789;SDS011;37287;47.554;7.844;2023-03-14T02:01:37;0.40;;;0.40;;
50789;SDS011;37287;47.554;7.844;2023-03-14T02:04:06;0.30;;;0.30;;
50789;SDS011;37287;47.554;7.844;2023-03-14T02:06:47;0.30;;;0.30;;
50789;SDS011;37287;47.554;7.844;2023-03-14T02:09:38;0.20;;;0.20;;
50789;SDS011;37287;47.554;7.844;2023-03-14T02:12:08;1.85;;;0.50;;
50789;SDS011;37287;47.554;7.844;2023-03-14T02:14:35;0.30;;;0.30;;
50789;SDS011;37287;47.554;7.844;2023-03-14T02:17:04;0.20;;;0.20;;
50789;SDS011;37287;47.554;7.844;2023-03-14T02:22:21;1.33;;;1.23;;
50789;SDS011;37287;47.554;7.844;2023-03-14T02:25:08;0.80;;;0.80;;
50789;SDS011;37287;47.554;7.844;2023-03-14T02:27:40;1.85;;;0.55;;
50789;SDS011;37287;47.554;7.844;2023-03-14T02:30:10;0.40;;;0.40;;
50789;SDS011;37287;47.554;7.844;2023-03-14T02:32:40;0.40;;;0.40;;
50789;SDS011;37287;47.554;7.844;2023-03-14T02:35:12;0.35;;;0.30;;
50789;SDS011;37287;47.554;7.844;2023-03-14T02:37:46;0.35;;;0.35;;
50789;SDS011;37287;47.554;7.844;2023-03-14T02:40:18;0.40;;;0.40;;
50789;SDS011;37287;47.554;7.844;2023-03-14T02:42:45;0.22;;;0.22;;
50789;SDS011;37287;47.554;7.844;2023-03-14T02:47:44;0.47;;;0.30;;
50789;SDS011;37287;47.554;7.844;2023-03-14T02:50:24;0.15;;;0.15;;
50789;SDS011;37287;47.554;7.844;2023-03-14T02:52:55;0.70;;;0.20;;
50789;SDS011;37287;47.554;7.844;2023-03-14T02:55:24;0.10;;;0.10;;
50789;SDS011;37287;47.554;7.844;2023-03-14T02:57:52;0.38;;;0.10;;
50789;SDS011;37287;47.554;7.844;2023-03-14T03:00:21;0.20;;;0.10;;
50789;SDS011;37287;47.554;7.844;2023-03-14T03:02:48;2.83;;;0.10;;
50789;SDS011;37287;47.554;7.844;2023-03-14T03:05:17;0.20;;;0.20;;
50789;SDS011;37287;47.554;7.844;2023-03-14T03:07:45;0.17;;;0.17;;
50789;SDS011;37287;47.554;7.844;2023-03-14T03:10:12;0.30;;;0.30;;
50789;SDS011;37287;47.554;7.844;2023-03-14T03:12:38;0.20;;;0.20;;
50789;SDS011;37287;47.554;7.844;2023-03-14T03:15:07;0.60;;;0.60;;
50789;SDS011;37287;47.554;7.844;2023-03-14T03:17:37;0.47;;;0.40;;
50789;SDS011;37287;47.554;7.844;2023-03-14T03:20:03;0.30;;;0.30;;
50789;SDS011;37287;47.554;7.844;2023-03-14T03:22:36;0.52;;;0.40;;
50789;SDS011;37287;47.554;7.844;2023-03-14T03:25:04;0.20;;;0.20;;
50789;SDS011;37287;47.554;7.844;2023-03-14T03:27:32;0.17;;;0.17;;
50789;SDS011;37287;47.554;7.844;2023-03-14T03:30:03;0.32;;;0.30;;
50789;SDS011;37287;47.554;7.844;2023-03-14T03:32:31;0.20;;;0.10;;
50789;SDS011;37287;47.554;7.844;2023-03-14T03:34:57;2.08;;;0.30;;
50789;SDS011;37287;47.554;7.844;2023-03-14T03:37:24;0.47;;;0.32;;
50789;SDS011;37287;47.554;7.844;2023-03-14T03:39:54;0.52;;;0.50;;
50789;SDS011;37287;47.554;7.844;2023-03-14T03:42:20;0.22;;;0.22;;
50789;SDS011;37287;47.554;7.844;2023-03-14T03:44:49;0.25;;;0.25;;
50789;SDS011;37287;47.554;7.844;2023-03-14T03:47:16;1.25;;;0.25;;
50789;SDS011;37287;47.554;7.844;2023-03-14T03:49:43;0.30;;;0.30;;
50789;SDS011;37287;47.554;7.844;2023-03-14T03:52:14;0.28;;;0.28;;
50789;SDS011;37287;47.554;7.844;2023-03-14T03:54:40;0.20;;;0.20;;
50789;SDS011;37287;47.554;7.844;2023-03-14T03:57:07;0.80;;;0.57;;
50789;SDS011;37287;47.554;7.844;2023-03-14T03:59:33;1.45;;;0.47;;
50789;SDS011;37287;47.554;7.844;2023-03-14T04:02:00;0.60;;;0.60;;
50789;SDS011;37287;47.554;7.844;2023-03-14T04:04:29;0.70;;;0.70;;
50789;SDS011;37287;47.554;7.844;2023-03-14T04:06:57;0.75;;;0.75;;
50789;SDS011;37287;47.554;7.844;2023-03-14T04:09:24;0.50;;;0.50;;
50789;SDS011;37287;47.554;7.844;2023-03-14T04:11:50;0.50;;;0.50;;
50789;SDS011;37287;47.554;7.844;2023-03-14T04:14:19;0.40;;;0.40;;
50789;SDS011;37287;47.554;7.844;2023-03-14T04:16:48;0.30;;;0.30;;
50789;SDS011;37287;47.554;7.844;2023-03-14T04:19:16;0.57;;;0.30;;
50789;SDS011;37287;47.554;7.844;2023-03-14T04:21:43;0.30;;;0.30;;
50789;SDS011;37287;47.554;7.844;2023-03-14T04:24:13;0.70;;;0.30;;
50789;SDS011;37287;47.554;7.844;2023-03-14T04:26:40;0.22;;;0.20;;
50789;SDS011;37287;47.554;7.844;2023-03-14T04:29:13;0.10;;;0.10;;
50789;SDS011;37287;47.554;7.844;2023-03-14T04:31:39;0.20;;;0.20;;
50789;SDS011;37287;47.554;7.844;2023-03-14T04:34:06;0.20;;;0.20;;
50789;SDS011;37287;47.554;7.844;2023-03-14T04:36:33;0.77;;;0.20;;
50789;SDS011;37287;47.554;7.844;2023-03-14T04:38:59;0.20;;;0.20;;
50789;SDS011;37287;47.554;7.844;2023-03-14T04:41:26;0.47;;;0.10;;
50789;SDS011;37287;47.554;7.844;2023-03-14T04:44:01;0.77;;;0.20;;
50789;SDS011;37287;47.554;7.844;2023-03-14T04:46:27;0.20;;;0.20;;
50789;SDS011;37287;47.554;7.844;2023-03-14T04:48:54;0.70;;;0.20;;
50789;SDS011;37287;47.554;7.844;2023-03-14T04:51:24;0.17;;;0.17;;
50789;SDS011;37287;47.554;7.844;2023-03-14T04:53:53;1.35;;;0.30;;
50789;SDS011;37287;47.554;7.844;2023-03-14T04:56:20;0.32;;;0.30;;
50789;SDS011;37287;47.554;7.844;2023-03-14T04:58:47;0.30;;;0.30;;
50789;SDS011;37287;47.554;7.844;2023-03-14T05:01:14;0.65;;;0.25;;
50789;SDS011;37287;47.554;7.844;2023-03-14T05:03:40;0.28;;;0.28;;
50789;SDS011;37287;47.554;7.844;2023-03-14T05:06:09;0.20;;;0.20;;
50789;SDS011;37287;47.554;7.844;2023-03-14T05:08:36;0.82;;;0.40;;
50789;SDS011;37287;47.554;7.844;2023-03-14T05:11:03;0.22;;;0.20;;
50789;SDS011;37287;47.554;7.844;2023-03-14T05:13:31;0.40;;;0.40;;
50789;SDS011;37287;47.554;7.844;2023-03-14T05:16:07;0.20;;;0.20;;
50789;SDS011;37287;47.554;7.844;2023-03-14T05:18:36;1.85;;;0.30;;
50789;SDS011;37287;47.554;7.844;2023-03-14T05:21:04;0.30;;;0.30;;
50789;SDS011;37287;47.554;7.844;2023-03-14T05:23:31;0.40;;;0.38;;
50789;SDS011;37287;47.554;7.844;2023-03-14T05:25:58;0.73;;;0.47;;
50789;SDS011;37287;47.554;7.844;2023-03-14T05:28:24;1.55;;;0.47;;
50789;SDS011;37287;47.554;7.844;2023-03-14T05:30:51;0.35;;;0.30;;
50789;SDS011;37287;47.554;7.844;2023-03-14T05:33:23;0.32;;;0.32;;
50789;SDS011;37287;47.554;7.844;2023-03-14T05:35:49;0.30;;;0.20;;
50789;SDS011;37287;47.554;7.844;2023-03-14T05:38:16;1.75;;;0.20;;
50789;SDS011;37287;47.554;7.844;2023-03-14T05:40:45;0.30;;;0.30;;
50789;SDS011;37287;47.554;7.844;2023-03-14T05:43:12;0.40;;;0.40;;
50789;SDS011;37287;47.554;7.844;2023-03-14T05:45:40;0.32;;;0.32;;
50789;SDS011;37287;47.554;7.844;2023-03-14T05:48:07;0.40;;;0.40;;
50789;SDS011;37287;47.554;7.844;2023-03-14T05:50:33;0.60;;;0.57;;
50789;SDS011;37287;47.554;7.844;2023-03-14T05:53:00;0.50;;;0.50;;
50789;SDS011;37287;47.554;7.844;2023-03-14T05:55:33;0.80;;;0.80;;
50789;SDS011;37287;47.554;7.844;2023-03-14T05:58:00;1.38;;;0.85;;
50789;SDS011;37287;47.554;7.844;2023-03-14T06:00:26;0.68;;;0.68;;
50789;SDS011;37287;47.554;7.844;2023-03-14T06:02:55;2.65;;;0.85;;
50789;SDS011;37287;47.554;7.844;2023-03-14T06:05:22;0.47;;;0.47;;
50789;SDS011;37287;47.554;7.844;2023-03-14T06:07:52;0.55;;;0.50;;
50789;SDS011;37287;47.554;7.844;2023-03-14T06:10:20;2.75;;;0.60;;
50789;SDS011;37287;47.554;7.844;2023-03-14T06:12:46;1.05;;;0.47;;
50789;SDS011;37287;47.554;7.844;2023-03-14T06:15:13;0.68;;;0.60;;
50789;SDS011;37287;47.554;7.844;2023-03-14T06:17:42;0.77;;;0.60;;
50789;SDS011;37287;47.554;7.844;2023-03-14T06:20:09;0.88;;;0.57;;
50789;SDS011;37287;47.554;7.844;2023-03-14T06:22:36;0.73;;;0.60;;
50789;SDS011;37287;47.554;7.844;2023-03-14T06:25:04;0.43;;;0.43;;
50789;SDS011;37287;47.554;7.844;2023-03-14T06:27:31;0.40;;;0.40;;
50789;SDS011;37287;47.554;7.844;2023-03-14T06:29:58;0.45;;;0.43;;
50789;SDS011;37287;47.554;7.844;2023-03-14T06:32:25;0.75;;;0.55;;
50789;SDS011;37287;47.554;7.844;2023-03-14T06:34:51;0.35;;;0.30;;
50789;SDS011;37287;47.554;7.844;2023-03-14T06:37:19;2.33;;;0.63;;
50789;SDS011;37287;47.554;7.844;2023-03-14T06:39:51;1.95;;;0.80;;
50789;SDS011;37287;47.554;7.844;2023-03-14T06:42:18;1.88;;;0.73;;
50789;SDS011;37287;47.554;7.844;2023-03-14T06:44:45;0.63;;;0.63;;
50789;SDS011;37287;47.554;7.844;2023-03-14T06:47:12;1.77;;;1.40;;
50789;SDS011;37287;47.554;7.844;2023-03-14T06:49:39;0.98;;;0.88;;
50789;SDS011;37287;47.554;7.844;2023-03-14T06:52:06;2.08;;;1.30;;
50789;SDS011;37287;47.554;7.844;2023-03-14T06:54:32;1.80;;;1.40;;
50789;SDS011;37287;47.554;7.844;2023-03-14T06:57:03;3.70;;;1.20;;
50789;SDS011;37287;47.554;7.844;2023-03-14T06:59:29;1.55;;;1.30;;
50789;SDS011;37287;47.554;7.844;2023-03-14T07:01:58;1.17;;;1.08;;
50789;SDS011;37287;47.554;7.844;2023-03-14T07:04:24;1.42;;;1.33;;
50789;SDS011;37287;47.554;7.844;2023-03-14T07:06:51;1.17;;;1.08;;
50789;SDS011;37287;47.554;7.844;2023-03-14T07:09:18;1.75;;;0.80;;
50789;SDS011;37287;47.554;7.844;2023-03-14T07:11:46;0.70;;;0.70;;
50789;SDS011;37287;47.554;7.844;2023-03-14T07:14:13;0.50;;;0.50;;
50789;SDS011;37287;47.554;7.844;2023-03-14T07:16:40;0.40;;;0.40;;
50789;SDS011;37287;47.554;7.844;2023-03-14T07:19:06;1.42;;;0.60;;
50789;SDS011;37287;47.554;7.844;2023-03-14T07:21:33;0.40;;;0.40;;
50789;SDS011;37287;47.554;7.844;2023-03-14T07:24:01;0.45;;;0.30;;
50789;SDS011;37287;47.554;7.844;2023-03-14T07:26:27;0.30;;;0.30;;
50789;SDS011;37287;47.554;7.844;2023-03-14T07:28:54;0.40;;;0.30;;
50789;SDS011;37287;47.554;7.844;2023-03-14T07:31:23;0.30;;;0.30;;
50789;SDS011;37287;47.554;7.844;2023-03-14T07:33:54;3.00;;;0.43;;
50789;SDS011;37287;47.554;7.844;2023-03-14T07:36:20;0.40;;;0.40;;
50789;SDS011;37287;47.554;7.844;2023-03-14T07:38:49;0.70;;;0.70;;
50789;SDS011;37287;47.554;7.844;2023-03-14T07:41:15;1.05;;;0.95;;
50789;SDS011;37287;47.554;7.844;2023-03-14T07:43:42;1.10;;;1.00;;
50789;SDS011;37287;47.554;7.844;2023-03-14T07:46:09;0.93;;;0.90;;
50789;SDS011;37287;47.554;7.844;2023-03-14T07:48:35;0.90;;;0.90;;
50789;SDS011;37287;47.554;7.844;2023-03-14T07:51:02;0.68;;;0.68;;
50789;SDS011;37287;47.554;7.844;2023-03-14T07:53:30;1.10;;;0.90;;
50789;SDS011;37287;47.554;7.844;2023-03-14T07:55:57;0.88;;;0.88;;
50789;SDS011;37287;47.554;7.844;2023-03-14T07:58:26;1.92;;;0.80;;
50789;SDS011;37287;47.554;7.844;2023-03-14T08:00:53;0.85;;;0.70;;
50789;SDS011;37287;47.554;7.844;2023-03-14T08:03:19;0.45;;;0.43;;
50789;SDS011;37287;47.554;7.844;2023-03-14T08:05:49;0.50;;;0.40;;
50789;SDS011;37287;47.554;7.844;2023-03-14T08:08:18;0.30;;;0.30;;
50789;SDS011;37287;47.554;7.844;2023-03-14T08:10:45;0.40;;;0.38;;
50789;SDS011;37287;47.554;7.844;2023-03-14T08:13:13;0.50;;;0.35;;
50789;SDS011;37287;47.554;7.844;2023-03-14T08:15:47;0.13;;;0.13;;
50789;SDS011;37287;47.554;7.844;2023-03-14T08:18:15;0.20;;;0.10;;
50789;SDS011;37287;47.554;7.844;2023-03-14T08:20:41;0.10;;;0.10;;
50789;SDS011;37287;47.554;7.844;2023-03-14T08:23:12;0.20;;;0.20;;
50789;SDS011;37287;47.554;7.844;2023-03-14T08:25:38;0.52;;;0.13;;
50789;SDS011;37287;47.554;7.844;2023-03-14T08:28:05;0.08;;;0.08;;
50789;SDS011;37287;47.554;7.844;2023-03-14T08:30:32;2.35;;;0.10;;
50789;SDS011;37287;47.554;7.844;2023-03-14T08:32:58;0.13;;;0.10;;
50789;SDS011;37287;47.554;7.844;2023-03-14T08:35:26;0.10;;;0.10;;
50789;SDS011;37287;47.554;7.844;2023-03-14T08:37:57;0.10;;;0.10;;
50789;SDS011;37287;47.554;7.844;2023-03-14T08:40:24;0.22;;;0.10;;
50789;SDS011;37287;47.554;7.844;2023-03-14T08:42:50;0.10;;;0.10;;
50789;SDS011;37287;47.554;7.844;2023-03-14T08:45:19;0.10;;;0.10;;
50789;SDS011;37287;47.554;7.844;2023-03-14T08:47:45;0.00;;;0.00;;
50789;SDS011;37287;47.554;7.844;2023-03-14T08:50:12;0.05;;;0.05;;
50789;SDS011;37287;47.554;7.844;2023-03-14T08:52:41;0.25;;;0.13;;
50789;SDS011;37287;47.554;7.844;2023-03-14T08:55:08;0.57;;;0.20;;
50789;SDS011;37287;47.554;7.844;2023-03-14T08:57:35;0.05;;;0.05;;
50789;SDS011;37287;47.554;7.844;2023-03-14T09:00:04;0.08;;;0.08;;
50789;SDS011;37287;47.554;7.844;2023-03-14T09:02:37;2.47;;;0.10;;
50789;SDS011;37287;47.554;7.844;2023-03-14T09:05:04;0.00;;;0.00;;
50789;SDS011;37287;47.554;7.844;2023-03-14T09:07:33;0.10;;;0.05;;
50789;SDS011;37287;47.554;7.844;2023-03-14T09:10:00;0.10;;;0.10;;
50789;SDS011;37287;47.554;7.844;2023-03-14T09:12:26;0.10;;;0.10;;
50789;SDS011;37287;47.554;7.844;2023-03-14T09:14:57;0.10;;;0.10;;
50789;SDS011;37287;47.554;7.844;2023-03-14T09:17:24;0.00;;;0.00;;
50789;SDS011;37287;47.554;7.844;2023-03-14T09:19:50;0.03;;;0.03;;
50789;SDS011;37287;47.554;7.844;2023-03-14T09:22:17;0.20;;;0.10;;
50789;SDS011;37287;47.554;7.844;2023-03-14T09:24:43;0.10;;;0.10;;
50789;SDS011;37287;47.554;7.844;2023-03-14T09:27:34;0.20;;;0.20;;
50789;SDS011;37287;47.554;7.844;2023-03-14T09:30:00;0.10;;;0.10;;
50789;SDS011;37287;47.554;7.844;2023-03-14T09:32:27;0.77;;;0.10;;
50789;SDS011;37287;47.554;7.844;2023-03-14T09:34:54;0.10;;;0.10;;
50789;SDS011;37287;47.554;7.844;2023-03-14T09:37:20;0.10;;;0.00;;
50789;SDS011;37287;47.554;7.844;2023-03-14T09:39:47;0.10;;;0.10;;
50789;SDS011;37287;47.554;7.844;2023-03-14T09:42:15;0.00;;;0.00;;
50789;SDS011;37287;47.554;7.844;2023-03-14T09:45:10;0.00;;;0.00;;
50789;SDS011;37287;47.554;7.844;2023-03-14T09:47:36;0.10;;;0.10;;
50789;SDS011;37287;47.554;7.844;2023-03-14T09:50:22;1.98;;;0.10;;
50789;SDS011;37287;47.554;7.844;2023-03-14T09:52:51;0.45;;;0.10;;
50789;SDS011;37287;47.554;7.844;2023-03-14T09:55:24;0.10;;;0.10;;
50789;SDS011;37287;47.554;7.844;2023-03-14T09:57:51;0.17;;;0.13;;
50789;SDS011;37287;47.554;7.844;2023-03-14T10:00:23;0.30;;;0.10;;
50789;SDS011;37287;47.554;7.844;2023-03-14T10:02:59;4.63;;;0.10;;
50789;SDS011;37287;47.554;7.844;2023-03-14T10:05:43;0.00;;;0.00;;
50789;SDS011;37287;47.554;7.844;2023-03-14T10:08:14;0.30;;;0.10;;
50789;SDS011;37287;47.554;7.844;2023-03-14T10:10:41;0.00;;;0.00;;
50789;SDS011;37287;47.554;7.844;2023-03-14T10:13:41;0.45;;;0.10;;
50789;SDS011;37287;47.554;7.844;2023-03-14T10:16:01;0.32;;;0.10;;
50789;SDS011;37287;47.554;7.844;2023-03-14T10:18:35;0.13;;;0.05;;
50789;SDS011;37287;47.554;7.844;2023-03-14T10:23:55;0.52;;;0.22;;
50789;SDS011;37287;47.554;7.844;2023-03-14T10:26:35;0.10;;;0.10;;
50789;SDS011;37287;47.554;7.844;2023-03-14T10:29:08;0.10;;;0.10;;
50789;SDS011;37287;47.554;7.844;2023-03-14T10:31:50;2.63;;;0.17;;
50789;SDS011;37287;47.554;7.844;2023-03-14T10:34:26;1.48;;;0.10;;
50789;SDS011;37287;47.554;7.844;2023-03-14T10:37:05;2.28;;;0.20;;
50789;SDS011;37287;47.554;7.844;2023-03-14T10:39:49;0.20;;;0.20;;
50789;SDS011;37287;47.554;7.844;2023-03-14T10:42:19;0.00;;;0.00;;
50789;SDS011;37287;47.554;7.844;2023-03-14T10:44:58;0.17;;;0.17;;
50789;SDS011;37287;47.554;7.844;2023-03-14T10:47:33;0.10;;;0.10;;
50789;SDS011;37287;47.554;7.844;2023-03-14T10:52:51;0.40;;;0.28;;
50789;SDS011;37287;47.554;7.844;2023-03-14T10:55:28;0.20;;;0.13;;
50789;SDS011;37287;47.554;7.844;2023-03-14T10:58:25;3.00;;;0.38;;
50789;SDS011;37287;47.554;7.844;2023-03-14T11:07:08;0.20;;;0.20;;
50789;SDS011;37287;47.554;7.844;2023-03-14T11:15:05;0.30;;;0.25;;
50789;SDS011;37287;47.554;7.844;2023-03-14T11:17:45;0.32;;;0.10;;
50789;SDS011;37287;47.554;7.844;2023-03-14T11:28:57;0.50;;;0.10;;
50789;SDS011;37287;47.554;7.844;2023-03-14T11:31:31;0.22;;;0.20;;
50789;SDS011;37287;47.554;7.844;2023-03-14T11:34:07;0.20;;;0.20;;
50789;SDS011;37287;47.554;7.844;2023-03-14T11:36:50;0.73;;;0.20;;
50789;SDS011;37287;47.554;7.844;2023-03-14T11:39:19;0.20;;;0.20;;
50789;SDS011;37287;47.554;7.844;2023-03-14T11:41:52;0.30;;;0.30;;
50789;SDS011;37287;47.554;7.844;2023-03-14T11:44:25;2.15;;;0.63;;
50789;SDS011;37287;47.554;7.844;2023-03-14T11:47:07;0.90;;;0.40;;
50789;SDS011;37287;47.554;7.844;2023-03-14T11:49:46;2.53;;;0.63;;
50789;SDS011;37287;47.554;7.844;2023-03-14T11:52:34;2.70;;;0.50;;
50789;SDS011;37287;47.554;7.844;2023-03-14T11:55:17;0.57;;;0.40;;
50789;SDS011;37287;47.554;7.844;2023-03-14T11:57:50;0.50;;;0.50;;
50789;SDS011;37287;47.554;7.844;2023-03-14T12:00:20;0.68;;;0.40;;
50789;SDS011;37287;47.554;7.844;2023-03-14T12:05:35;1.38;;;0.60;;
50789;SDS011;37287;47.554;7.844;2023-03-14T12:10:55;1.40;;;0.60;;
50789;SDS011;37287;47.554;7.844;2023-03-14T12:13:28;3.63;;;1.02;;
50789;SDS011;37287;47.554;7.844;2023-03-14T12:15:59;1.30;;;0.90;;
50789;SDS011;37287;47.554;7.844;2023-03-14T12:18:33;4.20;;;1.05;;
50789;SDS011;37287;47.554;7.844;2023-03-14T12:21:08;1.15;;;0.70;;
50789;SDS011;37287;47.554;7.844;2023-03-14T12:23:53;1.60;;;0.95;;
50789;SDS011;37287;47.554;7.844;2023-03-14T12:26:26;3.47;;;0.85;;
50789;SDS011;37287;47.554;7.844;2023-03-14T12:29:11;1.58;;;1.10;;
50789;SDS011;37287;47.554;7.844;2023-03-14T12:31:45;1.27;;;0.90;;
50789;SDS011;37287;47.554;7.844;2023-03-14T12:42:08;3.10;;;0.60;;
50789;SDS011;37287;47.554;7.844;2023-03-14T12:44:41;2.03;;;0.90;;
50789;SDS011;37287;47.554;7.844;2023-03-14T12:52:20;4.30;;;0.82;;
50789;SDS011;37287;47.554;7.844;2023-03-14T13:00:16;2.67;;;1.33;;
50789;SDS011;37287;47.554;7.844;2023-03-14T13:02:45;2.78;;;1.02;;
50789;SDS011;37287;47.554;7.844;2023-03-14T13:05:18;3.75;;;0.80;;
50789;SDS011;37287;47.554;7.844;2023-03-14T13:10:28;3.05;;;0.85;;
50789;SDS011;37287;47.554;7.844;2023-03-14T13:13:26;1.95;;;0.90;;
50789;SDS011;37287;47.554;7.844;2023-03-14T13:15:57;2.65;;;1.15;;
50789;SDS011;37287;47.554;7.844;2023-03-14T13:18:33;5.28;;;1.20;;
50789;SDS011;37287;47.554;7.844;2023-03-14T13:23:37;1.67;;;0.95;;
50789;SDS011;37287;47.554;7.844;2023-03-14T13:26:06;2.78;;;0.98;;
50789;SDS011;37287;47.554;7.844;2023-03-14T13:28:40;4.70;;;1.13;;
50789;SDS011;37287;47.554;7.844;2023-03-14T13:31:12;1.75;;;0.80;;
50789;SDS011;37287;47.554;7.844;2023-03-14T13:33:47;2.25;;;0.82;;
50789;SDS011;37287;47.554;7.844;2023-03-14T13:38:57;2.72;;;0.80;;
50789;SDS011;37287;47.554;7.844;2023-03-14T13:41:25;3.03;;;1.00;;
50789;SDS011;37287;47.554;7.844;2023-03-14T13:44:00;1.15;;;0.65;;
50789;SDS011;37287;47.554;7.844;2023-03-14T13:46:35;1.70;;;0.90;;
50789;SDS011;37287;47.554;7.844;2023-03-14T13:49:04;3.13;;;0.80;;
50789;SDS011;37287;47.554;7.844;2023-03-14T13:51:32;1.70;;;0.80;;
50789;SDS011;37287;47.554;7.844;2023-03-14T13:54:00;3.28;;;0.93;;
50789;SDS011;37287;47.554;7.844;2023-03-14T13:56:28;3.17;;;0.98;;
50789;SDS011;37287;47.554;7.844;2023-03-14T13:58:56;0.80;;;0.55;;
50789;SDS011;37287;47.554;7.844;2023-03-14T14:03:53;2.83;;;0.98;;
50789;SDS011;37287;47.554;7.844;2023-03-14T14:12:15;1.42;;;0.90;;
50789;SDS011;37287;47.554;7.844;2023-03-14T14:15:10;2.35;;;0.80;;
50789;SDS011;37287;47.554;7.844;2023-03-14T14:17:48;1.88;;;0.90;;
50789;SDS011;37287;47.554;7.844;2023-03-14T14:20:29;1.55;;;0.98;;
50789;SDS011;37287;47.554;7.844;2023-03-14T14:23:06;1.48;;;0.77;;
50789;SDS011;37287;47.554;7.844;2023-03-14T14:25:37;1.33;;;0.60;;
50789;SDS011;37287;47.554;7.844;2023-03-14T14:28:14;5.13;;;1.00;;
50789;SDS011;37287;47.554;7.844;2023-03-14T14:31:16;3.70;;;0.77;;
50789;SDS011;37287;47.554;7.844;2023-03-14T14:33:53;0.75;;;0.52;;
50789;SDS011;37287;47.554;7.844;2023-03-14T14:36:21;2.33;;;0.70;;
50789;SDS011;37287;47.554;7.844;2023-03-14T14:39:11;2.15;;;0.75;;
50789;SDS011;37287;47.554;7.844;2023-03-14T14:41:47;3.63;;;0.90;;
50789;SDS011;37287;47.554;7.844;2023-03-14T14:44:16;1.65;;;0.68;;
50789;SDS011;37287;47.554;7.844;2023-03-14T14:46:47;0.57;;;0.50;;
50789;SDS011;37287;47.554;7.844;2023-03-14T14:49:18;1.05;;;0.60;;
50789;SDS011;37287;47.554;7.844;2023-03-14T14:51:49;1.05;;;0.65;;
50789;SDS011;37287;47.554;7.844;2023-03-14T14:54:20;1.52;;;0.60;;
50789;SDS011;37287;47.554;7.844;2023-03-14T14:57:02;2.75;;;0.80;;
50789;SDS011;37287;47.554;7.844;2023-03-14T14:59:31;2.05;;;0.85;;
50789;SDS011;37287;47.554;7.844;2023-03-14T15:02:03;0.95;;;0.40;;
50789;SDS011;37287;47.554;7.844;2023-03-14T15:04:37;0.57;;;0.45;;
50789;SDS011;37287;47.554;7.844;2023-03-14T15:07:04;0.50;;;0.40;;
50789;SDS011;37287;47.554;7.844;2023-03-14T15:09:30;0.80;;;0.80;;
50789;SDS011;37287;47.554;7.844;2023-03-14T15:11:57;1.52;;;0.60;;
50789;SDS011;37287;47.554;7.844;2023-03-14T15:14:23;1.40;;;0.80;;
50789;SDS011;37287;47.554;7.844;2023-03-14T15:16:50;1.52;;;0.52;;
50789;SDS011;37287;47.554;7.844;2023-03-14T15:19:20;3.78;;;0.77;;
50789;SDS011;37287;47.554;7.844;2023-03-14T15:21:51;1.10;;;0.50;;
50789;SDS011;37287;47.554;7.844;2023-03-14T15:24:19;0.55;;;0.40;;
50789;SDS011;37287;47.554;7.844;2023-03-14T15:26:46;1.10;;;0.30;;
50789;SDS011;37287;47.554;7.844;2023-03-14T15:29:15;2.72;;;0.52;;
50789;SDS011;37287;47.554;7.844;2023-03-14T15:31:41;0.63;;;0.38;;
50789;SDS011;37287;47.554;7.844;2023-03-14T15:34:10;1.25;;;0.57;;
50789;SDS011;37287;47.554;7.844;2023-03-14T15:36:37;1.10;;;0.50;;
50789;SDS011;37287;47.554;7.844;2023-03-14T15:39:04;3.20;;;0.90;;
50789;SDS011;37287;47.554;7.844;2023-03-14T15:41:35;1.63;;;0.63;;
50789;SDS011;37287;47.554;7.844;2023-03-14T15:44:01;1.30;;;0.68;;
50789;SDS011;37287;47.554;7.844;2023-03-14T15:46:27;1.63;;;0.70;;
50789;SDS011;37287;47.554;7.844;2023-03-14T15:48:59;2.05;;;0.52;;
50789;SDS011;37287;47.554;7.844;2023-03-14T15:51:25;2.53;;;0.80;;
50789;SDS011;37287;47.554;7.844;2023-03-14T15:53:52;1.67;;;0.70;;
50789;SDS011;37287;47.554;7.844;2023-03-14T15:56:20;0.80;;;0.52;;
50789;SDS011;37287;47.554;7.844;2023-03-14T15:58:50;1.70;;;0.40;;
50789;SDS011;37287;47.554;7.844;2023-03-14T16:01:19;1.38;;;0.63;;
50789;SDS011;37287;47.554;7.844;2023-03-14T16:03:47;1.13;;;0.50;;
50789;SDS011;37287;47.554;7.844;2023-03-14T16:06:15;0.90;;;0.50;;
50789;SDS011;37287;47.554;7.844;2023-03-14T16:08:41;0.60;;;0.55;;
50789;SDS011;37287;47.554;7.844;2023-03-14T16:11:14;1.10;;;0.52;;
50789;SDS011;37287;47.554;7.844;2023-03-14T16:13:53;2.45;;;0.35;;
50789;SDS011;37287;47.554;7.844;2023-03-14T16:16:19;0.75;;;0.50;;
50789;SDS011;37287;47.554;7.844;2023-03-14T16:18:46;0.82;;;0.40;;
50789;SDS011;37287;47.554;7.844;2023-03-14T16:21:16;1.90;;;0.60;;
50789;SDS011;37287;47.554;7.844;2023-03-14T16:23:44;0.73;;;0.38;;